createdAt,value
2022-12-11T00:02:06.512Z,14.77
2022-12-11T00:04:32.977Z,16.83
2022-12-11T00:06:59.391Z,16.25
2022-12-11T00:09:26.090Z,15.63
2022-12-11T00:11:52.674Z,16.85
2022-12-11T00:14:19.276Z,16.17
2022-12-11T00:16:48.063Z,14.57
2022-12-11T00:19:15.146Z,14.55
2022-12-11T00:21:41.477Z,15.13
2022-12-11T00:24:07.858Z,15.50
2022-12-11T00:26:34.172Z,17.90
2022-12-11T00:29:00.534Z,17.88
2022-12-11T00:31:26.990Z,16.40
2022-12-11T00:33:54.676Z,15.05
2022-12-11T00:36:23.651Z,15.57
2022-12-11T00:38:51.179Z,15.90
2022-12-11T00:41:17.990Z,14.60
2022-12-11T00:43:44.772Z,14.88
2022-12-11T00:46:13.167Z,17.55
2022-12-11T00:48:39.603Z,17.75
2022-12-11T00:51:06.407Z,15.80
2022-12-11T00:53:33.007Z,17.08
2022-12-11T00:55:59.431Z,16.38
2022-12-11T00:58:26.072Z,12.50
2022-12-11T01:00:52.407Z,13.35
2022-12-11T01:03:19.078Z,15.02
2022-12-11T01:05:53.712Z,17.52
2022-12-11T01:08:20.658Z,16.95
2022-12-11T01:10:47.472Z,14.75
2022-12-11T01:13:13.994Z,19.63
2022-12-11T01:15:42.819Z,18.67
2022-12-11T01:18:10.734Z,15.55
2022-12-11T01:20:39.292Z,18.38
2022-12-11T01:23:06.101Z,17.48
2022-12-11T01:25:32.905Z,14.13
2022-12-11T01:27:59.541Z,15.82
2022-12-11T01:30:26.095Z,17.60
2022-12-11T01:32:52.920Z,18.73
2022-12-11T01:35:19.802Z,16.80
2022-12-11T01:37:46.399Z,20.80
2022-12-11T01:40:14.912Z,16.52
2022-12-11T01:42:41.550Z,20.60
2022-12-11T01:45:30.737Z,19.98
2022-12-11T01:48:05.379Z,20.15
2022-12-11T01:50:37.320Z,15.75
2022-12-11T01:53:06.919Z,19.95
2022-12-11T01:55:34.458Z,20.33
2022-12-11T01:58:02.643Z,20.42
2022-12-11T02:00:29.321Z,18.65
2022-12-11T02:02:55.678Z,17.30
2022-12-11T02:05:22.023Z,15.95
2022-12-11T02:07:54.465Z,18.00
2022-12-11T02:10:28.947Z,17.48
2022-12-11T02:13:12.272Z,19.83
2022-12-11T02:15:48.319Z,19.02
2022-12-11T02:18:36.565Z,12.88
2022-12-11T02:21:29.112Z,17.13
2022-12-11T02:24:19.078Z,17.02
2022-12-11T02:27:05.855Z,18.73
2022-12-11T02:29:42.442Z,15.73
2022-12-11T02:32:13.866Z,17.50
2022-12-11T02:34:46.987Z,15.30
2022-12-11T02:37:23.166Z,17.92
2022-12-11T02:39:53.902Z,15.77
2022-12-11T02:42:21.658Z,14.05
2022-12-11T02:44:49.477Z,17.02
2022-12-11T02:47:17.852Z,14.77
2022-12-11T02:49:48.235Z,15.57
2022-12-11T02:52:18.755Z,18.27
2022-12-11T02:54:47.080Z,17.83
2022-12-11T02:57:27.880Z,15.35
2022-12-11T02:59:54.512Z,15.07
2022-12-11T03:02:21.261Z,15.85
2022-12-11T03:04:48.353Z,13.55
2022-12-11T03:07:25.977Z,14.77
2022-12-11T03:09:53.192Z,13.45
2022-12-11T03:12:25.212Z,16.42
2022-12-11T03:14:51.704Z,16.08
2022-12-11T03:17:30.526Z,14.90
2022-12-11T03:20:22.319Z,13.13
2022-12-11T03:22:56.845Z,14.10
2022-12-11T03:25:28.246Z,15.93
2022-12-11T03:27:58.696Z,14.43
2022-12-11T03:30:28.380Z,15.68
2022-12-11T03:33:01.108Z,16.58
2022-12-11T03:35:44.142Z,15.57
2022-12-11T03:38:17.676Z,18.23
2022-12-11T03:40:48.950Z,16.02
2022-12-11T03:43:16.242Z,13.82
2022-12-11T03:45:44.693Z,14.85
2022-12-11T03:48:13.380Z,14.65
2022-12-11T03:50:41.491Z,14.70
2022-12-11T03:53:08.605Z,14.73
2022-12-11T03:55:37.832Z,13.95
2022-12-11T03:58:04.511Z,14.13
2022-12-11T04:00:31.551Z,12.70
2022-12-11T04:02:58.079Z,14.30
2022-12-11T04:05:24.403Z,12.50
2022-12-11T04:07:50.842Z,14.00
2022-12-11T04:10:17.302Z,13.30
2022-12-11T04:12:43.817Z,11.90
2022-12-11T04:15:10.834Z,13.40
2022-12-11T04:17:37.553Z,12.55
2022-12-11T04:20:05.599Z,14.52
2022-12-11T04:22:32.090Z,11.48
2022-12-11T04:24:58.768Z,12.07
2022-12-11T04:27:25.579Z,10.18
2022-12-11T04:29:52.116Z,10.77
2022-12-11T04:32:18.493Z,12.35
2022-12-11T04:34:45.023Z,9.38
2022-12-11T04:37:11.338Z,10.95
2022-12-11T04:39:37.642Z,8.77
2022-12-11T04:42:04.246Z,11.02
2022-12-11T04:44:30.661Z,10.65
2022-12-11T04:46:57.071Z,8.15
2022-12-11T04:49:23.395Z,12.25
2022-12-11T04:51:49.746Z,10.50
2022-12-11T04:54:17.694Z,11.82
2022-12-11T04:56:43.998Z,12.43
2022-12-11T04:59:11.403Z,12.25
2022-12-11T05:01:37.744Z,11.75
2022-12-11T05:04:04.264Z,12.57
2022-12-11T05:06:30.626Z,10.93
2022-12-11T05:08:56.974Z,11.30
2022-12-11T05:11:23.604Z,12.43
2022-12-11T05:13:49.987Z,11.60
2022-12-11T05:16:17.252Z,10.45
2022-12-11T05:18:43.934Z,11.38
2022-12-11T05:21:12.730Z,10.73
2022-12-11T05:23:39.781Z,11.13
2022-12-11T05:26:13.076Z,11.07
2022-12-11T05:28:40.235Z,10.48
2022-12-11T05:31:12.589Z,10.48
2022-12-11T05:33:41.417Z,10.90
2022-12-11T05:36:08.598Z,10.02
2022-12-11T05:38:35.487Z,10.02
2022-12-11T05:41:05.606Z,11.43
2022-12-11T05:43:34.224Z,10.25
2022-12-11T05:46:11.005Z,10.13
2022-12-11T05:48:37.932Z,11.32
2022-12-11T05:51:05.802Z,10.40
2022-12-11T05:53:32.810Z,10.65
2022-12-11T05:56:08.231Z,10.77
2022-12-11T05:58:35.356Z,9.50
2022-12-11T06:01:08.628Z,9.57
2022-12-11T06:03:35.349Z,12.00
2022-12-11T06:06:02.814Z,10.93
2022-12-11T06:08:29.773Z,11.52
2022-12-11T06:10:56.276Z,12.55
2022-12-11T06:13:23.001Z,12.63
2022-12-11T06:15:49.920Z,12.07
2022-12-11T06:18:16.397Z,12.25
2022-12-11T06:20:43.091Z,13.45
2022-12-11T06:23:10.857Z,11.68
2022-12-11T06:25:40.567Z,12.10
2022-12-11T06:28:14.807Z,14.23
2022-12-11T06:30:43.715Z,9.95
2022-12-11T06:33:10.334Z,11.27
2022-12-11T06:35:42.075Z,12.38
2022-12-11T06:38:09.977Z,9.68
2022-12-11T06:40:36.330Z,13.35
2022-12-11T06:43:02.806Z,12.45
2022-12-11T06:45:29.364Z,14.73
2022-12-11T06:48:00.448Z,12.38
2022-12-11T06:52:56.503Z,12.13
2022-12-11T06:55:23.289Z,13.40
2022-12-11T06:57:49.892Z,13.77
2022-12-11T07:00:16.754Z,12.63
2022-12-11T07:02:44.401Z,10.40
2022-12-11T07:05:11.477Z,13.43
2022-12-11T07:07:39.471Z,13.45
2022-12-11T07:10:08.527Z,14.10
2022-12-11T07:12:35.924Z,12.07
2022-12-11T07:15:06.897Z,12.55
2022-12-11T07:17:34.493Z,11.20
2022-12-11T07:20:01.221Z,9.35
2022-12-11T07:22:29.223Z,13.50
2022-12-11T07:24:56.087Z,12.13
2022-12-11T07:27:23.416Z,13.02
2022-12-11T07:29:51.484Z,12.63
2022-12-11T07:32:19.640Z,15.00
2022-12-11T07:34:51.558Z,12.52
2022-12-11T07:37:18.847Z,14.07
2022-12-11T07:39:46.536Z,13.20
2022-12-11T07:42:13.513Z,11.93
2022-12-11T07:44:40.394Z,12.95
2022-12-11T07:47:07.061Z,12.77
2022-12-11T07:49:34.848Z,13.88
2022-12-11T07:52:01.387Z,11.65
2022-12-11T07:54:27.876Z,12.50
2022-12-11T07:56:54.665Z,11.93
2022-12-11T07:59:21.376Z,13.32
2022-12-11T08:01:48.209Z,12.38
2022-12-11T08:04:15.181Z,13.07
2022-12-11T08:06:43.937Z,12.38
2022-12-11T08:09:20.408Z,13.98
2022-12-11T08:11:52.106Z,12.60
2022-12-11T08:14:19.540Z,13.40
2022-12-11T08:16:49.552Z,12.93
2022-12-11T08:19:16.757Z,12.68
2022-12-11T08:24:26.217Z,11.65
2022-12-11T08:26:52.853Z,10.02
2022-12-11T08:29:19.575Z,12.68
2022-12-11T08:31:46.376Z,7.70
2022-12-11T08:34:12.955Z,10.77
2022-12-11T08:36:40.066Z,10.98
2022-12-11T08:39:07.560Z,11.18
2022-12-11T08:41:34.252Z,12.32
2022-12-11T08:44:00.735Z,10.40
2022-12-11T08:49:11.887Z,9.77
2022-12-11T08:51:38.981Z,9.23
2022-12-11T08:54:06.121Z,9.60
2022-12-11T08:56:33.221Z,10.13
2022-12-11T08:59:03.601Z,10.65
2022-12-11T09:01:30.926Z,10.90
2022-12-11T09:03:59.477Z,10.43
2022-12-11T09:06:28.843Z,11.50
2022-12-11T09:11:41.617Z,9.95
2022-12-11T09:14:08.404Z,11.38
2022-12-11T09:16:36.637Z,10.73
2022-12-11T09:19:03.674Z,11.73
2022-12-11T09:21:30.292Z,11.60
2022-12-11T09:23:59.420Z,12.73
2022-12-11T09:26:28.509Z,10.93
2022-12-11T09:28:55.203Z,11.50
2022-12-11T09:31:21.576Z,10.90
2022-12-11T09:33:47.923Z,12.07
2022-12-11T09:36:14.269Z,13.45
2022-12-11T09:38:41.405Z,12.40
2022-12-11T09:41:29.415Z,12.43
2022-12-11T09:44:01.861Z,12.85
2022-12-11T09:46:33.796Z,10.60
2022-12-11T09:49:03.416Z,13.23
2022-12-11T09:52:03.719Z,12.85
2022-12-11T09:54:30.379Z,14.02
2022-12-11T09:57:17.124Z,12.75
2022-12-11T10:00:19.785Z,13.82
2022-12-11T10:02:55.234Z,12.65
2022-12-11T10:05:49.728Z,12.65
2022-12-11T10:08:30.520Z,12.77
2022-12-11T10:11:23.781Z,13.40
2022-12-11T10:14:06.009Z,12.90
2022-12-11T10:16:38.976Z,11.75
2022-12-11T10:19:06.057Z,11.88
2022-12-11T10:21:40.080Z,11.55
2022-12-11T10:25:07.496Z,12.68
2022-12-11T10:27:20.926Z,11.77
2022-12-11T10:29:52.954Z,10.38
2022-12-11T10:32:24.931Z,12.05
2022-12-11T10:35:01.715Z,12.35
2022-12-11T10:37:28.303Z,11.90
2022-12-11T10:39:54.744Z,10.90
2022-12-11T10:42:22.771Z,11.57
2022-12-11T10:45:04.404Z,10.32
2022-12-11T10:47:30.823Z,11.68
2022-12-11T10:50:02.012Z,11.10
2022-12-11T10:52:42.612Z,11.48
2022-12-11T10:55:30.366Z,12.43
2022-12-11T10:58:00.665Z,9.98
2022-12-11T11:00:38.296Z,9.77
2022-12-11T11:03:22.751Z,11.13
2022-12-11T11:05:49.735Z,10.52
2022-12-11T11:08:21.820Z,10.45
2022-12-11T11:10:52.512Z,9.98
2022-12-11T11:13:21.880Z,8.52
2022-12-11T11:15:49.274Z,9.48
2022-12-11T11:18:28.736Z,9.77
2022-12-11T11:20:55.516Z,8.73
2022-12-11T11:23:23.755Z,10.68
2022-12-11T11:25:56.030Z,8.88
2022-12-11T11:28:29.454Z,12.25
2022-12-11T11:31:08.794Z,10.35
2022-12-11T11:33:37.510Z,8.75
2022-12-11T11:36:07.537Z,9.13
2022-12-11T11:39:06.022Z,9.23
2022-12-11T11:42:01.770Z,9.50
2022-12-11T11:44:34.732Z,7.80
2022-12-11T11:47:10.856Z,10.48
2022-12-11T11:49:55.971Z,9.38
2022-12-11T11:52:40.443Z,9.00
2022-12-11T11:55:42.490Z,7.35
2022-12-11T11:58:19.883Z,8.52
2022-12-11T12:00:46.864Z,9.70
2022-12-11T12:03:16.882Z,9.00
2022-12-11T12:05:48.919Z,9.35
2022-12-11T12:09:06.479Z,9.07
2022-12-11T12:11:49.284Z,7.43
2022-12-11T12:17:31.032Z,8.95
2022-12-11T12:20:00.240Z,7.65
2022-12-11T12:22:52.347Z,8.45
2022-12-11T12:25:31.481Z,8.55
2022-12-11T12:28:12.557Z,9.63
2022-12-11T12:31:13.028Z,10.57
2022-12-11T12:34:02.531Z,9.00
2022-12-11T12:36:49.356Z,9.07
2022-12-11T12:39:24.209Z,8.85
2022-12-11T12:42:11.232Z,8.60
2022-12-11T12:45:01.817Z,7.00
2022-12-11T12:47:32.588Z,9.25
2022-12-11T12:50:01.126Z,9.75
2022-12-11T12:52:37.672Z,9.82
2022-12-11T12:55:13.460Z,7.07
2022-12-11T12:57:43.994Z,9.13
2022-12-11T13:00:13.486Z,9.55
2022-12-11T13:02:50.838Z,10.35
2022-12-11T13:05:24.802Z,9.02
2022-12-11T13:08:04.764Z,12.43
2022-12-11T13:10:38.672Z,10.02
2022-12-11T13:13:25.495Z,9.48
2022-12-11T13:15:51.901Z,6.70
2022-12-11T13:18:39.164Z,10.07
2022-12-11T13:21:29.874Z,10.82
2022-12-11T13:24:14.993Z,12.05
2022-12-11T13:26:42.302Z,9.52
2022-12-11T13:29:32.407Z,11.13
2022-12-11T13:32:04.928Z,11.25
2022-12-11T13:34:33.311Z,10.55
2022-12-11T13:37:01.423Z,11.20
2022-12-11T13:39:31.818Z,10.77
2022-12-11T13:42:02.484Z,11.82
2022-12-11T13:44:39.355Z,11.13
2022-12-11T13:47:10.582Z,12.43
2022-12-11T13:49:41.195Z,10.45
2022-12-11T13:52:15.817Z,11.85
2022-12-11T13:54:47.940Z,12.70
2022-12-11T13:57:20.324Z,12.55
2022-12-11T13:59:53.297Z,12.45
2022-12-11T14:02:35.230Z,12.35
2022-12-11T14:05:05.716Z,12.23
2022-12-11T14:07:36.029Z,12.80
2022-12-11T14:10:07.682Z,11.48
2022-12-11T14:12:34.352Z,12.05
2022-12-11T14:15:03.982Z,11.55
2022-12-11T14:17:32.806Z,13.65
2022-12-11T14:20:03.123Z,13.15
2022-12-11T14:22:30.723Z,13.20
2022-12-11T14:25:00.205Z,12.57
2022-12-11T14:27:27.693Z,12.10
2022-12-11T14:29:55.117Z,13.90
2022-12-11T14:32:31.534Z,13.60
2022-12-11T14:34:58.840Z,13.63
2022-12-11T14:37:26.195Z,12.52
2022-12-11T14:40:10.319Z,14.35
2022-12-11T14:42:43.693Z,11.95
2022-12-11T14:45:20.815Z,12.00
2022-12-11T14:47:47.523Z,12.07
2022-12-11T14:50:22.619Z,11.00
2022-12-11T14:52:54.203Z,11.90
2022-12-11T14:55:34.802Z,10.80
2022-12-11T14:58:17.629Z,10.82
2022-12-11T15:00:44.014Z,12.43
2022-12-11T15:03:10.340Z,12.60
2022-12-11T15:05:50.109Z,14.60
2022-12-11T15:08:25.665Z,13.50
2022-12-11T15:10:58.383Z,13.88
2022-12-11T15:13:25.301Z,11.70
2022-12-11T15:15:54.349Z,11.82
2022-12-11T15:18:24.382Z,12.45
2022-12-11T15:20:53.479Z,12.93
2022-12-11T15:23:20.068Z,12.82
2022-12-11T15:25:55.359Z,13.20
2022-12-11T15:28:34.795Z,10.23
2022-12-11T15:31:04.936Z,11.57
2022-12-11T15:33:34.531Z,11.00
2022-12-11T15:36:04.707Z,10.52
2022-12-11T15:38:40.236Z,14.10
2022-12-11T15:41:13.559Z,11.93
2022-12-11T15:43:40.379Z,13.07
2022-12-11T15:46:06.917Z,13.88
2022-12-11T15:48:33.772Z,12.88
2022-12-11T15:51:00.306Z,11.48
2022-12-11T15:53:26.657Z,11.63
2022-12-11T15:55:53.606Z,11.95
2022-12-11T15:58:22.338Z,12.45
2022-12-11T16:00:48.996Z,11.45
2022-12-11T16:03:17.673Z,12.18
2022-12-11T16:05:45.434Z,10.70
2022-12-11T16:08:17.284Z,12.70
2022-12-11T16:10:44.869Z,13.25
2022-12-11T16:13:12.243Z,13.30
2022-12-11T16:15:41.108Z,11.93
2022-12-11T16:18:12.858Z,9.73
2022-12-11T16:20:40.383Z,9.23
2022-12-11T16:23:08.249Z,11.18
2022-12-11T16:25:37.844Z,11.70
2022-12-11T16:28:05.015Z,12.85
2022-12-11T16:30:31.575Z,13.45
2022-12-11T16:32:57.967Z,13.50
2022-12-11T16:35:24.284Z,13.43
2022-12-11T16:37:54.140Z,14.00
2022-12-11T16:40:21.234Z,14.57
2022-12-11T16:42:48.172Z,11.80
2022-12-11T16:45:23.101Z,13.73
2022-12-11T16:47:49.564Z,13.10
2022-12-11T16:50:17.158Z,13.27
2022-12-11T16:52:45.482Z,13.25
2022-12-11T16:55:13.100Z,14.98
2022-12-11T16:57:39.939Z,13.23
2022-12-11T17:00:08.551Z,13.70
2022-12-11T17:02:35.912Z,13.95
2022-12-11T17:05:02.550Z,13.02
2022-12-11T17:07:29.189Z,13.43
2022-12-11T17:09:55.563Z,11.65
2022-12-11T17:12:22.085Z,14.32
2022-12-11T17:14:48.522Z,12.70
2022-12-11T17:17:14.823Z,13.35
2022-12-11T17:19:41.403Z,15.60
2022-12-11T17:22:07.750Z,16.23
2022-12-11T17:24:34.091Z,16.80
2022-12-11T17:27:00.423Z,12.55
2022-12-11T17:29:29.229Z,12.60
2022-12-11T17:31:55.639Z,11.60
2022-12-11T17:34:21.974Z,12.88
2022-12-11T17:36:48.289Z,12.32
2022-12-11T17:39:14.919Z,12.85
2022-12-11T17:41:41.293Z,11.55
2022-12-11T17:44:07.660Z,12.95
2022-12-11T17:46:34.315Z,13.52
2022-12-11T17:49:03.115Z,11.98
2022-12-11T17:51:29.566Z,12.73
2022-12-11T17:53:56.088Z,12.10
2022-12-11T17:56:23.214Z,14.50
2022-12-11T17:58:49.788Z,11.57
2022-12-11T18:01:16.338Z,11.18
2022-12-11T18:03:42.769Z,12.20
2022-12-11T18:06:13.129Z,13.25
2022-12-11T18:08:39.788Z,12.80
2022-12-11T18:11:13.130Z,11.05
2022-12-11T18:13:40.116Z,12.50
2022-12-11T18:16:12.227Z,11.35
2022-12-11T18:18:39.525Z,9.80
2022-12-11T18:21:06.134Z,9.10
2022-12-11T18:23:33.145Z,8.55
2022-12-11T18:25:59.653Z,10.25
2022-12-11T18:28:26.120Z,8.63
2022-12-11T18:30:52.501Z,9.52
2022-12-11T18:33:18.892Z,9.57
2022-12-11T18:35:45.421Z,8.60
2022-12-11T18:38:12.277Z,10.10
2022-12-11T18:40:38.743Z,8.30
2022-12-11T18:43:05.133Z,9.30
2022-12-11T18:45:34.715Z,10.27
2022-12-11T18:48:01.495Z,7.85
2022-12-11T18:50:27.832Z,8.73
2022-12-11T18:52:55.573Z,8.75
2022-12-11T18:55:22.069Z,7.10
2022-12-11T18:57:48.675Z,9.57
2022-12-11T19:00:15.695Z,8.35
2022-12-11T19:02:42.706Z,7.32
2022-12-11T19:05:10.472Z,8.77
2022-12-11T19:07:38.029Z,9.15
2022-12-11T19:10:04.962Z,7.90
2022-12-11T19:12:31.293Z,8.25
2022-12-11T19:14:59.063Z,6.75
2022-12-11T19:17:25.587Z,9.10
2022-12-11T19:19:51.938Z,8.90
2022-12-11T19:22:18.244Z,8.35
2022-12-11T19:24:44.589Z,8.27
2022-12-11T19:27:13.732Z,8.80
2022-12-11T19:29:40.407Z,8.77
2022-12-11T19:32:07.330Z,8.30
2022-12-11T19:34:33.854Z,8.95
2022-12-11T19:37:00.218Z,9.13
2022-12-11T19:39:26.886Z,9.57
2022-12-11T19:41:53.233Z,12.15
2022-12-11T19:44:20.540Z,9.40
2022-12-11T19:46:47.165Z,10.38
2022-12-11T19:49:13.734Z,10.77
2022-12-11T19:51:45.095Z,11.27
2022-12-11T19:54:14.754Z,9.50
2022-12-11T19:56:41.271Z,10.70
2022-12-11T19:59:09.668Z,9.25
2022-12-11T20:01:37.637Z,7.40
2022-12-11T20:04:08.123Z,9.75
2022-12-11T20:06:37.546Z,10.20
2022-12-11T20:09:06.415Z,13.80
2022-12-11T20:11:33.428Z,13.73
2022-12-11T20:13:59.997Z,13.23
2022-12-11T20:16:46.164Z,10.88
2022-12-11T20:19:12.889Z,11.60
2022-12-11T20:21:40.597Z,12.15
2022-12-11T20:24:09.087Z,10.88
2022-12-11T20:26:35.769Z,13.48
2022-12-11T20:29:03.697Z,13.05
2022-12-11T20:31:30.147Z,10.32
2022-12-11T20:33:57.092Z,10.70
2022-12-11T20:36:24.718Z,12.98
2022-12-11T20:38:51.635Z,10.13
2022-12-11T20:41:23.500Z,9.75
2022-12-11T20:43:50.814Z,9.40
2022-12-11T20:46:17.914Z,9.18
2022-12-11T20:48:45.073Z,11.82
2022-12-11T20:51:13.494Z,10.23
2022-12-11T20:53:40.797Z,24.05
2022-12-11T20:56:16.663Z,10.45
2022-12-11T20:58:43.832Z,10.40
2022-12-11T21:01:19.905Z,9.65
2022-12-11T21:03:47.358Z,11.23
2022-12-11T21:06:21.188Z,10.23
2022-12-11T21:08:47.763Z,9.15
2022-12-11T21:11:14.255Z,8.68
2022-12-11T21:13:40.733Z,10.63
2022-12-11T21:16:09.340Z,12.00
2022-12-11T21:18:35.722Z,10.63
2022-12-11T21:21:02.262Z,11.52
2022-12-11T21:23:28.776Z,10.20
2022-12-11T21:25:55.305Z,9.77
2022-12-11T21:28:21.835Z,11.93
2022-12-11T21:30:48.249Z,11.80
2022-12-11T21:33:14.830Z,11.10
2022-12-11T21:35:41.284Z,9.85
2022-12-11T21:38:07.870Z,9.70
2022-12-11T21:40:34.373Z,10.68
2022-12-11T21:43:00.693Z,9.48
2022-12-11T21:48:13.822Z,8.95
2022-12-11T21:50:40.877Z,10.38
2022-12-11T21:53:07.276Z,11.48
2022-12-11T21:55:33.583Z,11.65
2022-12-11T21:58:00.088Z,11.05
2022-12-11T22:00:26.648Z,10.75
2022-12-11T22:02:52.991Z,9.20
2022-12-11T22:05:19.551Z,10.20
2022-12-11T22:07:45.996Z,10.60
2022-12-11T22:10:12.442Z,9.02
2022-12-11T22:12:38.783Z,10.07
2022-12-11T22:15:05.879Z,10.00
2022-12-11T22:17:32.215Z,9.20
2022-12-11T22:19:58.527Z,10.38
2022-12-11T22:22:25.102Z,11.27
2022-12-11T22:24:52.872Z,10.93
2022-12-11T22:27:23.720Z,11.02
2022-12-11T22:29:50.473Z,9.77
2022-12-11T22:32:17.014Z,10.85
2022-12-11T22:34:43.475Z,10.60
2022-12-11T22:37:09.864Z,13.05
2022-12-11T22:39:36.163Z,11.30
2022-12-11T22:42:02.693Z,9.90
2022-12-11T22:44:29.005Z,11.95
2022-12-11T22:46:55.356Z,11.60
2022-12-11T22:49:21.682Z,10.13
2022-12-11T22:51:48.468Z,10.27
2022-12-11T22:54:14.863Z,11.45
2022-12-11T22:56:41.454Z,11.85
2022-12-11T22:59:07.807Z,11.13
2022-12-11T23:01:34.351Z,12.50
2022-12-11T23:04:00.705Z,10.43
2022-12-11T23:06:27.121Z,10.50
2022-12-11T23:08:57.565Z,11.15
2022-12-11T23:11:30.827Z,9.73
2022-12-11T23:13:57.508Z,10.43
2022-12-11T23:16:25.925Z,10.65
2022-12-11T23:18:53.584Z,10.38
2022-12-11T23:21:20.384Z,10.25
2022-12-11T23:23:46.710Z,10.30
2022-12-11T23:26:14.213Z,10.02
2022-12-11T23:28:40.997Z,9.70
2022-12-11T23:31:08.395Z,9.95
2022-12-11T23:33:34.811Z,9.65
2022-12-11T23:36:01.140Z,9.55
2022-12-11T23:38:27.728Z,10.02
2022-12-11T23:40:54.404Z,10.75
2022-12-11T23:43:20.863Z,11.05
2022-12-11T23:45:47.259Z,9.38
2022-12-11T23:48:14.160Z,11.60
2022-12-11T23:50:41.887Z,11.35
2022-12-11T23:53:08.544Z,9.75
2022-12-11T23:55:35.430Z,9.20
2022-12-11T23:58:01.771Z,9.68
